Time;durP1;ratioP1;P1;durP2;ratioP2;P2;SDS_P1;SDS_P2;PMS_P1;PMS_P2;Temp;Humidity;BMP_temperature;BMP_pressure;BME280_temperature;BME280_humidity;BME280_pressure;Samples;Min_cycle;Max_cycle;Signal;HPM_P1;HPM_P2
2022/02/23 00:01:31;;;;;;;;;;;;;;;21.69;42.85;100612.66;4865237;29;5469;-63
2022/02/23 00:04:01;;;;;;;;;;;;;;;21.68;42.65;100629.19;4866328;29;4201;-63
2022/02/23 00:06:28;;;;;;;;;;;;;;;21.68;42.78;100637.84;4865332;29;5653;-63
2022/02/23 00:08:54;;;;;;;;;;;;;;;21.67;42.81;100626.97;4866764;29;4244;-63
2022/02/23 00:11:20;;;;;;;;;;;;;;;21.65;42.95;100639.19;4866557;29;4261;-64
2022/02/23 00:13:47;;;;;;;;;;;;;;;21.66;42.81;100652.19;4867979;29;4332;-63
2022/02/23 00:16:13;;;;;;;;;;;;;;;21.65;42.79;100659.34;4867663;29;4290;-63
2022/02/23 00:18:40;;;;;;;;;;;;;;;21.65;42.87;100665.13;4864677;29;4193;-63
2022/02/23 00:21:07;;;;;;;;;;;;;;;21.64;42.71;100669.38;4866980;29;4279;-63
2022/02/23 00:23:33;;;;;;;;;;;;;;;21.64;42.78;100669.38;4867206;29;4220;-63
2022/02/23 00:26:00;;;;;;;;;;;;;;;21.63;42.67;100682.31;4864969;29;4334;-63
2022/02/23 00:28:26;;;;;;;;;;;;;;;21.64;42.73;100685.94;4864600;29;5337;-63
2022/02/23 00:30:52;;;;;;;;;;;;;;;21.64;42.79;100689.56;4866777;29;4130;-64
2022/02/23 00:33:19;;;;;;;;;;;;;;;21.64;42.87;100689.56;4865557;29;4288;-64
2022/02/23 00:35:45;;;;;;;;;;;;;;;21.64;42.86;100706.84;4866569;29;5132;-64
2022/02/23 00:38:11;;;;;;;;;;;;;;;21.65;42.86;100714.09;4866905;29;4219;-63
2022/02/23 00:40:38;;;;;;;;;;;;;;;21.64;42.86;100715.50;4864245;29;4245;-63
2022/02/23 00:43:06;;;;;;;;;;;;;;;21.64;42.78;100727.00;4867110;29;5359;-64
2022/02/23 00:45:32;;;;;;;;;;;;;;;21.64;42.88;100727.00;4865933;29;4409;-63
2022/02/23 00:47:58;;;;;;;;;;;;;;;21.64;42.64;100738.53;4866149;29;5656;-63
2022/02/23 00:50:25;;;;;;;;;;;;;;;21.65;42.59;100753.72;4865891;29;4251;-63
2022/02/23 00:52:51;;;;;;;;;;;;;;;21.63;42.79;100754.38;4865713;29;4128;-63
2022/02/23 00:55:18;;;;;;;;;;;;;;;21.57;42.81;100748.34;4866241;29;4214;-67
2022/02/23 00:57:44;;;;;;;;;;;;;;;21.63;42.63;100762.28;4865784;29;4254;-63
2022/02/23 01:00:10;;;;;;;;;;;;;;;21.62;42.64;100761.50;4864890;29;4369;-63
2022/02/23 01:02:39;;;;;;;;;;;;;;;21.62;42.86;100766.53;4867287;29;4271;-63
2022/02/23 01:05:05;;;;;;;;;;;;;;;21.60;42.80;100772.97;4866053;29;4196;-63
2022/02/23 01:07:31;;;;;;;;;;;;;;;21.62;42.83;100775.19;4863954;29;4282;-63
2022/02/23 01:09:58;;;;;;;;;;;;;;;21.62;42.80;100781.69;4863301;29;4268;-63
2022/02/23 01:12:25;;;;;;;;;;;;;;;21.62;42.86;100773.03;4864685;29;5365;-63
2022/02/23 01:14:52;;;;;;;;;;;;;;;21.63;42.67;100783.19;4866340;29;5361;-63
2022/02/23 01:17:18;;;;;;;;;;;;;;;21.63;42.87;100788.94;4866517;29;5347;-64
2022/02/23 01:19:44;;;;;;;;;;;;;;;21.63;42.98;100791.81;4866214;29;4217;-63
2022/02/23 01:22:11;;;;;;;;;;;;;;;21.64;42.91;100801.94;4866462;29;4336;-63
2022/02/23 01:24:37;;;;;;;;;;;;;;;21.63;42.72;100805.50;4865271;29;4222;-64
2022/02/23 01:27:03;;;;;;;;;;;;;;;21.63;42.93;100803.34;4866800;29;4288;-63
2022/02/23 01:29:30;;;;;;;;;;;;;;;21.64;42.90;100801.94;4864658;29;4278;-63
2022/02/23 01:31:57;;;;;;;;;;;;;;;21.64;42.90;100812.72;4866715;29;4307;-63
2022/02/23 01:34:23;;;;;;;;;;;;;;;21.61;42.73;100814.78;4866863;29;4248;-64
2022/02/23 01:36:50;;;;;;;;;;;;;;;21.64;42.85;100819.22;4864500;29;4190;-64
2022/02/23 01:39:16;;;;;;;;;;;;;;;21.65;42.96;100820.72;4865598;29;4366;-63
2022/02/23 01:41:42;;;;;;;;;;;;;;;21.65;42.68;100829.38;4863293;29;4256;-63
2022/02/23 01:44:09;;;;;;;;;;;;;;;21.65;42.88;100831.53;4866198;29;4228;-63
2022/02/23 01:46:35;;;;;;;;;;;;;;;21.65;42.76;100843.78;4865476;29;4276;-63
2022/02/23 01:49:01;;;;;;;;;;;;;;;21.63;42.85;100835.06;4865093;29;4202;-63
2022/02/23 01:51:30;;;;;;;;;;;;;;;21.65;42.75;100846.66;4865123;29;4254;-63
2022/02/23 01:53:56;;;;;;;;;;;;;;;21.61;42.55;100842.88;4865752;29;4328;-64
2022/02/23 01:56:22;;;;;;;;;;;;;;;21.65;42.74;100851.69;4863308;29;4251;-63
2022/02/23 01:58:49;;;;;;;;;;;;;;;21.61;42.60;100851.53;4866516;29;4127;-64
2022/02/23 02:01:15;;;;;;;;;;;;;;;21.64;42.66;100859.56;4865977;29;4282;-63
2022/02/23 02:03:41;;;;;;;;;;;;;;;21.65;42.66;100878.38;4864794;29;4243;-64
2022/02/23 02:06:08;;;;;;;;;;;;;;;21.66;42.61;100882.72;4866036;29;4174;-63
2022/02/23 02:08:35;;;;;;;;;;;;;;;21.66;42.86;100890.63;4865554;29;5206;-63
2022/02/23 02:11:01;;;;;;;;;;;;;;;21.64;42.71;100894.16;4865772;29;4122;-63
2022/02/23 02:13:27;;;;;;;;;;;;;;;21.65;42.84;100892.78;4864552;29;6498;-63
2022/02/23 02:15:54;;;;;;;;;;;;;;;21.64;42.77;100899.91;4864771;29;4300;-63
2022/02/23 02:18:20;;;;;;;;;;;;;;;21.65;42.82;100889.88;4865990;29;4120;-63
2022/02/23 02:20:47;;;;;;;;;;;;;;;21.64;42.70;100894.16;4865883;29;4296;-64
2022/02/23 02:23:15;;;;;;;;;;;;;;;21.65;42.89;100889.88;4870195;29;4287;-63
2022/02/23 02:25:42;;;;;;;;;;;;;;;21.63;42.76;100898.44;4869217;29;4210;-63
2022/02/23 02:28:08;;;;;;;;;;;;;;;21.63;42.93;100886.91;4862281;29;4129;-63
2022/02/23 02:30:34;;;;;;;;;;;;;;;21.62;42.75;100914.25;4859353;29;5363;-63
2022/02/23 02:33:01;;;;;;;;;;;;;;;21.64;42.90;100922.25;4863440;29;5380;-63
2022/02/23 02:35:27;;;;;;;;;;;;;;;21.63;42.65;100918.63;4866143;29;4248;-63
2022/02/23 02:37:54;;;;;;;;;;;;;;;21.62;42.69;100919.25;4864898;29;5478;-63
2022/02/23 02:40:20;;;;;;;;;;;;;;;21.63;42.79;100921.50;4863927;29;4298;-64
2022/02/23 02:42:46;;;;;;;;;;;;;;;21.62;42.65;100937.28;4870027;29;4257;-63
2022/02/23 02:45:13;;;;;;;;;;;;;;;21.62;42.71;100937.28;4868466;29;4135;-63
2022/02/23 02:47:39;;;;;;;;;;;;;;;21.62;42.78;100930.78;4869168;29;5180;-63
2022/02/23 02:50:06;;;;;;;;;;;;;;;21.62;42.95;100925.75;4867121;29;4284;-63
2022/02/23 02:52:32;;;;;;;;;;;;;;;21.63;42.92;100932.28;4867155;29;5293;-63
2022/02/23 02:54:59;;;;;;;;;;;;;;;21.64;42.89;100946.03;4867921;29;4115;-64
2022/02/23 02:57:25;;;;;;;;;;;;;;;21.64;42.73;100943.16;4868436;29;4254;-64
2022/02/23 02:59:52;;;;;;;;;;;;;;;21.61;42.99;100950.22;4868849;29;4304;-63
2022/02/23 03:02:18;;;;;;;;;;;;;;;21.62;42.81;100954.59;4867609;29;6026;-65
2022/02/23 03:04:44;;;;;;;;;;;;;;;21.63;42.81;100961.84;4866911;29;5570;-63
2022/02/23 03:07:11;;;;;;;;;;;;;;;21.63;42.83;100966.88;4868933;29;4114;-63
2022/02/23 03:09:37;;;;;;;;;;;;;;;21.63;42.87;100972.63;4866118;29;4310;-63
2022/02/23 03:12:04;;;;;;;;;;;;;;;21.62;42.80;100971.13;4868652;29;4288;-63
2022/02/23 03:14:31;;;;;;;;;;;;;;;21.61;43.01;100979.03;4868018;29;4328;-63
2022/02/23 03:16:57;;;;;;;;;;;;;;;21.61;42.79;100984.81;4867160;29;4186;-63
2022/02/23 03:19:23;;;;;;;;;;;;;;;21.61;42.91;100993.44;4867711;29;4218;-64
2022/02/23 03:21:50;;;;;;;;;;;;;;;21.61;42.77;100999.22;4869376;29;4231;-63
2022/02/23 03:24:16;;;;;;;;;;;;;;;21.61;42.80;100999.22;4866762;29;4368;-63
2022/02/23 03:26:42;;;;;;;;;;;;;;;21.61;42.75;101004.97;4868313;29;4337;-63
2022/02/23 03:29:09;;;;;;;;;;;;;;;21.63;42.96;101007.22;4868287;29;4238;-63
2022/02/23 03:31:35;;;;;;;;;;;;;;;21.61;42.75;101022.28;4869174;29;4413;-63
2022/02/23 03:34:01;;;;;;;;;;;;;;;21.62;42.79;101020.88;4865162;29;4278;-63
2022/02/23 03:36:28;;;;;;;;;;;;;;;21.62;42.90;101023.75;4867550;29;4133;-63
2022/02/23 03:38:54;;;;;;;;;;;;;;;21.61;42.76;101019.38;4866907;29;4293;-63
2022/02/23 03:41:20;;;;;;;;;;;;;;;21.61;42.93;101019.38;4868285;29;4449;-66
2022/02/23 03:43:47;;;;;;;;;;;;;;;21.61;42.97;101027.28;4865850;29;4296;-65
2022/02/23 03:46:13;;;;;;;;;;;;;;;21.61;42.70;101016.50;4866677;29;5375;-65
2022/02/23 03:48:40;;;;;;;;;;;;;;;21.61;42.71;101015.78;4865238;29;4493;-65
2022/02/23 03:51:06;;;;;;;;;;;;;;;21.60;42.68;101032.31;4862583;29;5366;-65
2022/02/23 03:53:33;;;;;;;;;;;;;;;21.61;42.72;101044.59;4864838;29;5370;-65
2022/02/23 03:55:59;;;;;;;;;;;;;;;21.62;42.70;101046.06;4866616;29;4190;-65
2022/02/23 03:58:26;;;;;;;;;;;;;;;21.62;42.80;101072.00;4866257;29;4200;-64
2022/02/23 04:00:52;;;;;;;;;;;;;;;21.62;42.98;101069.84;4865465;29;4355;-65
2022/02/23 04:03:18;;;;;;;;;;;;;;;21.62;42.92;101090.03;4866243;29;4375;-66
2022/02/23 04:05:45;;;;;;;;;;;;;;;21.61;42.83;101108.72;4866223;29;4258;-64
2022/02/23 04:08:11;;;;;;;;;;;;;;;21.62;42.74;101106.56;4863573;29;4215;-65
2022/02/23 04:10:38;;;;;;;;;;;;;;;21.63;42.89;101122.50;4864858;29;5535;-65
2022/02/23 04:13:04;;;;;;;;;;;;;;;21.62;42.96;101127.50;4865234;29;4215;-65
2022/02/23 04:15:30;;;;;;;;;;;;;;;21.63;42.87;101134.75;4865698;29;5426;-65
2022/02/23 04:17:57;;;;;;;;;;;;;;;21.62;42.96;101139.00;4864862;29;4318;-64
2022/02/23 04:20:23;;;;;;;;;;;;;;;21.59;42.94;101134.56;4865901;29;4256;-65
2022/02/23 04:22:49;;;;;;;;;;;;;;;21.62;42.91;101144.78;4863487;29;4280;-65
2022/02/23 04:25:17;;;;;;;;;;;;;;;21.63;42.77;101162.84;4867186;29;4224;-64
2022/02/23 04:27:43;;;;;;;;;;;;;;;21.62;42.99;101159.19;4867355;29;4200;-65
2022/02/23 04:30:10;;;;;;;;;;;;;;;21.61;42.78;101172.13;4862597;29;5486;-64
2022/02/23 04:32:36;;;;;;;;;;;;;;;21.63;42.96;101180.88;4861743;29;4300;-64
2022/02/23 04:35:03;;;;;;;;;;;;;;;21.62;42.86;101178.63;4863998;29;4312;-65
2022/02/23 04:37:29;;;;;;;;;;;;;;;21.63;42.87;101180.88;4861957;29;4226;-64
2022/02/23 04:39:58;;;;;;;;;;;;;;;21.63;42.71;101186.63;4862305;29;4280;-64
2022/02/23 04:42:24;;;;;;;;;;;;;;;21.64;43.02;101193.88;4866190;29;4224;-64
2022/02/23 04:44:51;;;;;;;;;;;;;;;21.65;43.17;101201.13;4867238;29;4262;-64
2022/02/23 04:47:18;;;;;;;;;;;;;;;21.66;43.17;101196.84;4866956;29;5417;-64
2022/02/23 04:49:44;;;;;;;;;;;;;;;21.65;43.02;101195.38;4864587;29;4262;-64
2022/02/23 04:52:10;;;;;;;;;;;;;;;21.65;43.29;101194.63;4865612;29;4309;-64
2022/02/23 04:54:38;;;;;;;;;;;;;;;21.65;43.16;101204.00;4865678;29;5323;-65
2022/02/23 04:57:04;;;;;;;;;;;;;;;21.64;42.92;101199.63;4865835;29;4300;-64
2022/02/23 04:59:30;;;;;;;;;;;;;;;21.64;43.15;101202.50;4865921;29;4335;-64
2022/02/23 05:01:57;;;;;;;;;;;;;;;21.64;43.12;101211.16;4867101;29;5221;-64
2022/02/23 05:04:24;;;;;;;;;;;;;;;21.64;43.06;101202.50;4865224;29;4280;-64
2022/02/23 05:06:50;;;;;;;;;;;;;;;21.66;43.17;101208.38;4865959;29;5299;-63
2022/02/23 05:09:16;;;;;;;;;;;;;;;21.67;43.09;101220.63;4865388;29;5291;-63
2022/02/23 05:11:43;;;;;;;;;;;;;;;21.67;43.02;101224.28;4864642;29;5284;-63
2022/02/23 05:14:09;;;;;;;;;;;;;;;21.67;43.33;101224.28;4864079;29;4330;-63
2022/02/23 05:16:35;;;;;;;;;;;;;;;21.67;43.45;101227.16;4866403;29;4278;-63
2022/02/23 05:19:02;;;;;;;;;;;;;;;21.66;43.47;101234.31;4866665;29;4327;-64
2022/02/23 05:21:28;;;;;;;;;;;;;;;21.66;43.17;101234.31;4865699;29;4280;-63
2022/02/23 05:23:55;;;;;;;;;;;;;;;21.65;43.37;101247.25;4865527;29;4268;-63
2022/02/23 05:26:21;;;;;;;;;;;;;;;21.65;43.22;101241.47;4867037;29;5291;-64
2022/02/23 05:28:47;;;;;;;;;;;;;;;21.66;43.34;101248.00;4867660;29;4259;-63
2022/02/23 05:31:14;;;;;;;;;;;;;;;21.67;43.29;101243.69;4865075;29;5463;-63
2022/02/23 05:33:40;;;;;;;;;;;;;;;21.66;43.23;101248.72;4863488;29;4233;-63
2022/02/23 05:36:06;;;;;;;;;;;;;;;21.68;43.50;101263.22;4864659;29;4282;-64
2022/02/23 05:38:33;;;;;;;;;;;;;;;21.69;43.41;101264.75;4866207;29;4302;-63
2022/02/23 05:41:02;;;;;;;;;;;;;;;21.71;43.42;101269.84;4866126;29;4272;-64
2022/02/23 05:43:28;;;;;;;;;;;;;;;21.69;43.63;101282.03;4864442;29;5405;-64
2022/02/23 05:45:54;;;;;;;;;;;;;;;21.69;43.61;101269.75;4866063;29;4285;-64
2022/02/23 05:48:21;;;;;;;;;;;;;;;21.69;43.56;101281.25;4862594;29;5462;-64
2022/02/23 05:50:47;;;;;;;;;;;;;;;21.69;43.72;101287.03;4866036;29;4350;-64
2022/02/23 05:53:14;;;;;;;;;;;;;;;21.68;43.66;101294.94;4864452;29;4165;-64
2022/02/23 05:55:40;;;;;;;;;;;;;;;21.69;43.62;101295.69;4865480;29;4282;-64
2022/02/23 05:58:06;;;;;;;;;;;;;;;21.70;43.75;101300.81;4864591;29;5388;-64
2022/02/23 06:00:33;;;;;;;;;;;;;;;21.68;43.43;101303.59;4861716;29;4231;-63
2022/02/23 06:02:59;;;;;;;;;;;;;;;21.68;43.72;101309.34;4863468;29;4271;-63
2022/02/23 06:05:25;;;;;;;;;;;;;;;21.68;43.54;101306.47;4865897;29;4271;-63
2022/02/23 06:07:52;;;;;;;;;;;;;;;21.66;44.24;101317.91;4863225;29;4182;-64
2022/02/23 06:10:18;;;;;;;;;;;;;;;21.61;44.12;101321.97;4857995;29;5534;-64
2022/02/23 06:12:45;;;;;;;;;;;;;;;21.59;45.27;101321.88;4857197;29;4158;-67
2022/02/23 06:15:11;;;;;;;;;;;;;;;21.62;45.33;101334.25;4865123;29;4739;-66
2022/02/23 06:17:37;;;;;;;;;;;;;;;21.64;45.26;101337.22;4867280;29;5387;-66
2022/02/23 06:20:04;;;;;;;;;;;;;;;21.65;45.21;101348.13;4868711;29;4309;-65
2022/02/23 06:22:30;;;;;;;;;;;;;;;21.65;45.79;101356.03;4869734;29;5394;-65
2022/02/23 06:24:57;;;;;;;;;;;;;;;21.62;46.20;101358.03;4871618;29;4394;-65
2022/02/23 06:27:24;;;;;;;;;;;;;;;21.65;45.94;101365.41;4875066;29;4252;-65
2022/02/23 06:29:50;;;;;;;;;;;;;;;21.64;46.08;101378.31;4874951;29;4278;-64
2022/02/23 06:32:16;;;;;;;;;;;;;;;21.85;47.48;101373.56;4866780;29;4443;-66
2022/02/23 06:34:43;;;;;;;;;;;;;;;22.00;47.53;101384.38;4870998;29;5564;-68
2022/02/23 06:37:09;;;;;;;;;;;;;;;22.06;46.60;101393.34;4872343;29;4512;-68
2022/02/23 06:39:39;;;;;;;;;;;;;;;22.05;46.42;101403.38;4869402;29;4382;-66
2022/02/23 06:42:05;;;;;;;;;;;;;;;22.11;45.83;101405.81;4869847;29;4297;-64
2022/02/23 06:44:32;;;;;;;;;;;;;;;22.09;46.11;101408.59;4869029;29;4131;-65
2022/02/23 06:47:00;;;;;;;;;;;;;;;22.13;46.24;101415.31;4869000;29;4630;-64
2022/02/23 06:49:26;;;;;;;;;;;;;;;22.17;45.95;101417.63;4867699;29;5452;-64
2022/02/23 06:51:53;;;;;;;;;;;;;;;22.15;45.53;101429.06;4866154;29;4388;-62
2022/02/23 06:54:20;;;;;;;;;;;;;;;22.12;45.67;101436.88;4871973;29;4744;-66
2022/02/23 06:56:46;;;;;;;;;;;;;;;22.14;45.40;101439.13;4873064;29;5456;-66
2022/02/23 06:59:12;;;;;;;;;;;;;;;22.09;45.03;101443.94;4885184;29;4554;-64
2022/02/23 07:01:40;;;;;;;;;;;;;;;22.10;45.19;101454.06;4868427;29;4128;-64
2022/02/23 07:04:07;;;;;;;;;;;;;;;21.93;45.38;101448.91;4885689;29;4131;-64
2022/02/23 07:06:33;;;;;;;;;;;;;;;21.94;45.41;101454.06;4871624;29;5208;-64
2022/02/23 07:09:00;;;;;;;;;;;;;;;21.91;45.43;101458.22;4870544;29;4268;-66
2022/02/23 07:11:27;;;;;;;;;;;;;;;21.95;44.72;101457.69;4868426;29;5432;-64
2022/02/23 07:13:54;;;;;;;;;;;;;;;22.05;45.00;101466.06;4872733;29;5339;-69
2022/02/23 07:16:23;;;;;;;;;;;;;;;22.04;44.85;101479.75;4873476;29;5180;-67
2022/02/23 07:18:50;;;;;;;;;;;;;;;22.06;44.81;101485.63;4871773;29;4149;-62
2022/02/23 07:21:16;;;;;;;;;;;;;;;22.17;44.48;101490.50;4866991;29;4158;-64
2022/02/23 07:23:43;;;;;;;;;;;;;;;22.14;44.75;101485.25;4872640;29;4254;-63
2022/02/23 07:26:09;;;;;;;;;;;;;;;22.17;44.63;101499.16;4871645;29;4608;-67
2022/02/23 07:28:36;;;;;;;;;;;;;;;22.20;44.75;101505.75;4868856;29;4240;-63
2022/02/23 07:31:09;;;;;;;;;;;;;;;22.20;44.60;101510.78;4864874;29;4162;-62
2022/02/23 07:33:37;;;;;;;;;;;;;;;22.15;44.42;101516.38;4864919;29;5337;-62
2022/02/23 07:36:04;;;;;;;;;;;;;;;22.09;44.33;101523.97;4873048;29;4445;-61
2022/02/23 07:38:30;;;;;;;;;;;;;;;22.06;44.39;101526.00;4868460;29;4247;-65
2022/02/23 07:40:56;;;;;;;;;;;;;;;22.07;44.50;101533.25;4866097;29;4291;-66
2022/02/23 07:43:43;;;;;;;;;;;;;;;22.11;44.67;101532.72;4867643;29;4235;-68
2022/02/23 07:46:10;;;;;;;;;;;;;;;22.20;44.52;101539.66;4867950;29;5451;-68
2022/02/23 07:48:37;;;;;;;;;;;;;;;22.18;44.51;101538.13;4870190;29;4297;-66
2022/02/23 07:51:04;;;;;;;;;;;;;;;22.21;44.06;101544.78;4867976;29;4444;-67
2022/02/23 07:53:31;;;;;;;;;;;;;;;22.17;44.23;101541.66;4871361;29;4280;-64
2022/02/23 07:55:57;;;;;;;;;;;;;;;22.16;44.12;101546.69;4871376;29;4226;-65
2022/02/23 07:58:23;;;;;;;;;;;;;;;22.20;44.05;101546.16;4867954;29;4182;-67
2022/02/23 08:00:50;;;;;;;;;;;;;;;22.17;44.28;101551.06;4866105;29;4247;-66
2022/02/23 08:03:16;;;;;;;;;;;;;;;22.20;43.99;101557.69;4867831;29;4266;-61
2022/02/23 08:05:45;;;;;;;;;;;;;;;22.24;43.93;101552.16;4870406;29;4190;-63
2022/02/23 08:08:11;;;;;;;;;;;;;;;22.23;43.91;101549.91;4872494;29;4219;-65
2022/02/23 08:10:38;;;;;;;;;;;;;;;22.24;44.13;101562.94;4865208;29;4233;-64
2022/02/23 08:13:05;;;;;;;;;;;;;;;22.01;44.49;101561.78;4869198;29;5619;-62
2022/02/23 08:21:02;;;;;;;;;;;;;;;21.82;44.67;101565.88;4865454;29;4210;-60
2022/02/23 08:23:28;;;;;;;;;;;;;;;22.04;44.50;101577.06;4869965;29;5401;-62
2022/02/23 08:25:54;;;;;;;;;;;;;;;22.00;44.19;101573.97;4868197;29;5382;-60
2022/02/23 08:28:21;;;;;;;;;;;;;;;21.81;43.59;101575.19;4867953;29;4245;-62
2022/02/23 08:30:47;;;;;;;;;;;;;;;21.89;43.82;101590.75;4864528;29;4296;-63
2022/02/23 08:33:14;;;;;;;;;;;;;;;22.03;44.02;101590.72;4866208;29;4320;-63
2022/02/23 08:35:43;;;;;;;;;;;;;;;21.99;43.99;101586.88;4868513;29;4040;-67
2022/02/23 08:38:11;;;;;;;;;;;;;;;22.10;43.76;101577.34;4867389;29;5450;-66
2022/02/23 08:40:39;;;;;;;;;;;;;;;22.13;43.74;101576.84;4868405;29;4250;-65
2022/02/23 08:43:05;;;;;;;;;;;;;;;22.15;43.71;101591.34;4871421;29;4396;-65
2022/02/23 08:45:33;;;;;;;;;;;;;;;22.14;43.58;101581.19;4869044;29;5722;-65
2022/02/23 08:48:06;;;;;;;;;;;;;;;22.19;43.58;101590.81;4865488;29;4308;-64
2022/02/23 08:50:32;;;;;;;;;;;;;;;22.22;43.80;101601.09;4864776;29;4252;-63
2022/02/23 08:52:58;;;;;;;;;;;;;;;22.22;43.45;101595.31;4868177;29;4124;-65
2022/02/23 08:55:25;;;;;;;;;;;;;;;22.21;43.78;101590.16;4865141;29;4256;-65
2022/02/23 08:57:51;;;;;;;;;;;;;;;22.21;43.31;101595.94;4866496;29;4339;-63
2022/02/23 09:00:17;;;;;;;;;;;;;;;22.21;43.04;101593.06;4868063;29;4459;-62
2022/02/23 09:02:44;;;;;;;;;;;;;;;22.20;43.19;101597.34;4863722;29;4178;-61
2022/02/23 09:05:10;;;;;;;;;;;;;;;22.16;43.13;101597.88;4862778;29;4028;-62
2022/02/23 09:07:37;;;;;;;;;;;;;;;22.06;43.66;101594.44;4864390;29;4387;-62
2022/02/23 09:10:06;;;;;;;;;;;;;;;21.80;42.65;101605.38;4867248;29;4182;-61
2022/02/23 09:12:33;;;;;;;;;;;;;;;21.60;43.02;101602.16;4863660;29;4265;-68
2022/02/23 09:15:01;;;;;;;;;;;;;;;21.67;43.06;101607.63;4862496;29;4335;-64
2022/02/23 09:17:56;;;;;;;;;;;;;;;21.65;43.27;101616.19;4864792;29;4200;-67
2022/02/23 09:20:44;;;;;;;;;;;;;;;21.65;43.40;101603.91;4868229;29;4787;-67
2022/02/23 09:23:11;;;;;;;;;;;;;;;21.61;43.25;101615.22;4869677;29;4193;-68
2022/02/23 09:25:37;;;;;;;;;;;;;;;21.70;42.97;101622.91;4868412;29;4397;-65
2022/02/23 09:28:04;;;;;;;;;;;;;;;21.73;42.77;101621.63;4868694;29;4130;-65
2022/02/23 09:30:30;;;;;;;;;;;;;;;21.69;43.70;101627.94;4866528;29;4184;-64
2022/02/23 09:32:56;;;;;;;;;;;;;;;21.56;43.56;101643.06;4866423;29;4250;-65
2022/02/23 09:35:25;;;;;;;;;;;;;;;21.65;43.83;101629.84;4868361;29;5401;-65
2022/02/23 09:37:51;;;;;;;;;;;;;;;21.67;43.46;101627.81;4870183;29;4261;-68
2022/02/23 09:40:18;;;;;;;;;;;;;;;21.69;43.67;101641.56;4869705;29;4518;-68
2022/02/23 09:42:44;;;;;;;;;;;;;;;21.68;43.74;101637.94;4870402;29;5266;-68
2022/02/23 09:45:11;;;;;;;;;;;;;;;21.67;43.97;101648.00;4871036;29;4258;-69
2022/02/23 09:47:40;;;;;;;;;;;;;;;21.66;43.67;101652.25;4871728;29;5488;-68
2022/02/23 09:50:10;;;;;;;;;;;;;;;21.67;43.92;101665.28;4871006;29;4263;-66
2022/02/23 09:52:36;;;;;;;;;;;;;;;21.69;43.81;101656.75;4869480;29;4260;-66
2022/02/23 09:55:03;;;;;;;;;;;;;;;21.67;43.81;101650.88;4871844;29;5340;-65
2022/02/23 09:57:30;;;;;;;;;;;;;;;21.67;43.83;101665.28;4875093;29;4260;-66
2022/02/23 09:59:57;;;;;;;;;;;;;;;21.63;43.86;101656.41;4874838;29;4235;-64
2022/02/23 10:02:23;;;;;;;;;;;;;;;21.66;44.15;101669.53;4869689;29;4406;-59
2022/02/23 10:04:49;;;;;;;;;;;;;;;21.66;44.24;101669.53;4875057;29;4192;-59
2022/02/23 10:07:16;;;;;;;;;;;;;;;21.64;43.15;101677.34;4875139;29;5359;-63
2022/02/23 10:09:43;;;;;;;;;;;;;;;21.82;44.51;101681.19;4876052;29;4185;-63
2022/02/23 10:12:15;;;;;;;;;;;;;;;21.96;44.24;101684.81;4869900;29;4216;-63
2022/02/23 10:14:42;;;;;;;;;;;;;;;22.04;44.53;101678.00;4872822;29;5522;-63
2022/02/23 10:17:08;;;;;;;;;;;;;;;22.14;44.11;101699.47;4873726;29;4263;-60
2022/02/23 10:19:36;;;;;;;;;;;;;;;22.21;44.45;101699.78;4874624;29;4226;-60
2022/02/23 10:22:02;;;;;;;;;;;;;;;22.25;44.19;101700.03;4867964;29;4245;-60
2022/02/23 10:24:29;;;;;;;;;;;;;;;22.24;44.84;101710.84;4874326;29;4246;-61
2022/02/23 10:26:56;;;;;;;;;;;;;;;22.23;44.65;101705.69;4873769;29;4535;-62
2022/02/23 10:29:26;;;;;;;;;;;;;;;22.26;43.97;101716.69;4874004;29;4082;-60
2022/02/23 10:31:52;;;;;;;;;;;;;;;22.24;44.24;101716.59;4870916;29;4279;-61
2022/02/23 10:34:20;;;;;;;;;;;;;;;22.25;43.90;101726.00;4869497;29;4306;-63
2022/02/23 10:36:59;;;;;;;;;;;;;;;22.24;44.08;101724.50;4873067;29;4350;-60
2022/02/23 10:39:35;;;;;;;;;;;;;;;22.20;43.47;101735.81;4874147;29;5427;-60
2022/02/23 10:42:02;;;;;;;;;;;;;;;22.10;42.74;101733.88;4866340;29;4202;-60
2022/02/23 10:44:29;;;;;;;;;;;;;;;22.04;42.02;101759.50;4871963;29;5039;-60
2022/02/23 10:46:56;;;;;;;;;;;;;;;21.95;41.54;101737.41;4873409;29;4268;-59
2022/02/23 10:49:22;;;;;;;;;;;;;;;21.91;40.71;101745.81;4874038;29;5463;-59
2022/02/23 10:51:48;;;;;;;;;;;;;;;21.94;40.54;101744.53;4869574;29;4341;-61
2022/02/23 10:54:15;;;;;;;;;;;;;;;21.99;39.32;101752.03;4886794;29;4285;-60
2022/02/23 10:56:41;;;;;;;;;;;;;;;21.96;38.98;101751.16;4874581;29;4175;-61
2022/02/23 10:59:15;;;;;;;;;;;;;;;22.08;38.91;101748.19;4872035;29;5477;-60
2022/02/23 11:01:42;;;;;;;;;;;;;;;21.82;39.54;101744.63;4868955;29;4222;-62
2022/02/23 11:04:09;;;;;;;;;;;;;;;21.86;38.60;101747.75;4874079;29;4223;-62
2022/02/23 11:06:36;;;;;;;;;;;;;;;21.95;38.28;101763.34;4871175;29;5252;-60
2022/02/23 11:09:03;;;;;;;;;;;;;;;22.02;38.02;101756.53;4873895;29;4362;-62
2022/02/23 11:11:29;;;;;;;;;;;;;;;21.94;38.13;101756.84;4869891;29;4225;-61
2022/02/23 11:13:56;;;;;;;;;;;;;;;21.81;37.72;101760.44;4870262;29;4463;-61
2022/02/23 11:16:23;;;;;;;;;;;;;;;21.79;37.76;101757.44;4871020;29;4228;-63
2022/02/23 11:18:50;;;;;;;;;;;;;;;21.72;38.14;101753.47;4872162;29;4114;-63
2022/02/23 11:21:21;;;;;;;;;;;;;;;21.72;38.13;101759.25;4870103;29;4293;-62
2022/02/23 11:23:49;;;;;;;;;;;;;;;21.66;38.67;101764.66;4871062;29;4244;-63
2022/02/23 11:26:17;;;;;;;;;;;;;;;21.69;37.83;101759.75;4869961;29;4444;-66
2022/02/23 11:28:47;;;;;;;;;;;;;;;21.74;38.13;101767.25;4884921;29;5925;-63
2022/02/23 11:31:14;;;;;;;;;;;;;;;21.80;38.73;101775.50;4883344;29;4278;-65
2022/02/23 11:33:46;;;;;;;;;;;;;;;21.80;40.16;101772.59;4877766;29;4356;-62
2022/02/23 11:36:20;;;;;;;;;;;;;;;21.77;40.33;101782.53;4867991;29;5394;-63
2022/02/23 11:38:52;;;;;;;;;;;;;;;21.77;39.96;101776.78;4870614;29;4230;-65
2022/02/23 11:41:22;;;;;;;;;;;;;;;21.78;40.03;101772.50;4869783;29;4205;-65
2022/02/23 11:43:48;;;;;;;;;;;;;;;21.77;42.23;101771.00;4869245;29;4243;-65
2022/02/23 11:46:15;;;;;;;;;;;;;;;21.80;42.74;101776.22;4870986;29;4267;-65
2022/02/23 11:48:49;;;;;;;;;;;;;;;21.83;43.25;101774.19;4868509;29;5437;-62
2022/02/23 11:51:22;;;;;;;;;;;;;;;21.89;41.99;101783.94;4866700;29;4309;-60
2022/02/23 11:53:49;;;;;;;;;;;;;;;22.37;42.71;101790.13;4869635;29;4181;-66
2022/02/23 11:56:15;;;;;;;;;;;;;;;22.57;42.85;101782.53;4871782;29;4259;-65
2022/02/23 11:58:49;;;;;;;;;;;;;;;22.66;42.37;101785.84;4871035;29;5580;-65
2022/02/23 12:01:17;;;;;;;;;;;;;;;22.74;42.09;101792.00;4871777;29;5181;-65
2022/02/23 12:04:03;;;;;;;;;;;;;;;22.77;41.81;101793.63;4873096;29;5278;-64
2022/02/23 12:06:29;;;;;;;;;;;;;;;22.81;41.83;101790.94;4872467;29;5426;-64
2022/02/23 12:08:56;;;;;;;;;;;;;;;22.81;42.24;101802.47;4883825;29;4161;-64
2022/02/23 12:11:23;;;;;;;;;;;;;;;22.82;42.41;101803.25;4870550;29;4204;-63
2022/02/23 12:13:51;;;;;;;;;;;;;;;22.85;42.15;101796.91;4870753;29;4162;-64
2022/02/23 12:16:21;;;;;;;;;;;;;;;22.89;42.21;101787.72;4873454;29;4131;-63
2022/02/23 12:18:47;;;;;;;;;;;;;;;22.91;41.82;101794.34;4873674;29;6434;-62
2022/02/23 12:21:14;;;;;;;;;;;;;;;22.95;41.91;101794.56;4869889;29;4201;-63
2022/02/23 12:23:40;;;;;;;;;;;;;;;22.99;42.10;101786.09;4870894;29;4201;-64
2022/02/23 12:26:11;;;;;;;;;;;;;;;22.96;41.88;101790.28;4869011;29;4173;-63
2022/02/23 12:28:38;;;;;;;;;;;;;;;22.97;42.07;101785.22;4871681;29;4018;-62
2022/02/23 12:31:04;;;;;;;;;;;;;;;23.01;41.79;101794.13;4871449;29;4068;-63
2022/02/23 12:33:31;;;;;;;;;;;;;;;22.96;41.97;101795.31;4867320;29;4299;-61
2022/02/23 12:36:08;;;;;;;;;;;;;;;22.94;42.29;101795.94;5039803;27;4314;-64
2022/02/23 12:38:34;;;;;;;;;;;;;;;23.10;42.10;101798.19;5029863;28;6347;-59
2022/02/23 12:41:03;;;;;;;;;;;;;;;23.15;42.41;101799.88;5036424;28;4052;-60
2022/02/23 12:43:30;;;;;;;;;;;;;;;23.13;42.28;101791.84;5038929;28;4210;-60
2022/02/23 12:45:58;;;;;;;;;;;;;;;23.16;42.41;101790.56;5040793;28;5449;-60
2022/02/23 12:48:25;;;;;;;;;;;;;;;23.11;41.83;101799.66;5035486;28;4253;-59
2022/02/23 12:50:54;;;;;;;;;;;;;;;23.13;42.41;101788.97;5035179;28;4224;-60
2022/02/23 12:53:30;;;;;;;;;;;;;;;23.20;42.12;101807.34;5036933;28;4161;-61